sensor_id;sensor_type;location;lat;lon;timestamp;noise_LAeq;noise_LA_min;noise_LA_max;noise_LA01;noise_LA95
40103;Laerm;25814;48.550;9.108;2024-02-26T00:00:26;29.69;28.77;33.43;;
40103;Laerm;25814;48.550;9.108;2024-02-26T00:02:54;29.57;28.79;31.83;;
40103;Laerm;25814;48.550;9.108;2024-02-26T00:05:20;29.48;28.75;31.22;;
40103;Laerm;25814;48.550;9.108;2024-02-26T00:07:46;29.70;28.58;34.54;;
40103;Laerm;25814;48.550;9.108;2024-02-26T00:10:13;30.05;28.91;37.57;;
40103;Laerm;25814;48.550;9.108;2024-02-26T00:12:40;29.68;28.82;32.67;;
40103;Laerm;25814;48.550;9.108;2024-02-26T00:15:08;29.47;28.73;32.59;;
40103;Laerm;25814;48.550;9.108;2024-02-26T00:17:34;29.54;28.75;32.86;;
40103;Laerm;25814;48.550;9.108;2024-02-26T00:20:02;33.82;28.61;48.15;;
40103;Laerm;25814;48.550;9.108;2024-02-26T00:22:31;29.68;28.86;31.41;;
40103;Laerm;25814;48.550;9.108;2024-02-26T00:24:57;31.07;29.15;38.05;;
40103;Laerm;25814;48.550;9.108;2024-02-26T00:27:23;29.79;28.90;38.80;;
40103;Laerm;25814;48.550;9.108;2024-02-26T00:29:49;29.67;28.90;31.49;;
40103;Laerm;25814;48.550;9.108;2024-02-26T00:32:15;29.59;28.57;32.88;;
40103;Laerm;25814;48.550;9.108;2024-02-26T00:34:41;29.52;28.76;31.81;;
40103;Laerm;25814;48.550;9.108;2024-02-26T00:37:07;29.44;28.68;36.88;;
40103;Laerm;25814;48.550;9.108;2024-02-26T00:39:33;33.34;28.84;44.89;;
40103;Laerm;25814;48.550;9.108;2024-02-26T00:42:00;29.67;28.89;33.54;;
40103;Laerm;25814;48.550;9.108;2024-02-26T00:44:26;29.51;28.46;30.91;;
40103;Laerm;25814;48.550;9.108;2024-02-26T00:46:52;29.58;28.75;32.77;;
40103;Laerm;25814;48.550;9.108;2024-02-26T00:49:18;32.48;29.23;39.07;;
40103;Laerm;25814;48.550;9.108;2024-02-26T00:51:44;29.70;28.70;33.18;;
40103;Laerm;25814;48.550;9.108;2024-02-26T00:54:10;29.31;28.56;31.26;;
40103;Laerm;25814;48.550;9.108;2024-02-26T00:56:36;30.39;28.53;37.48;;
40103;Laerm;25814;48.550;9.108;2024-02-26T00:59:02;31.05;29.07;38.30;;
40103;Laerm;25814;48.550;9.108;2024-02-26T01:01:29;29.51;28.70;31.81;;
40103;Laerm;25814;48.550;9.108;2024-02-26T01:03:55;29.36;28.69;31.29;;
40103;Laerm;25814;48.550;9.108;2024-02-26T01:06:21;29.56;28.74;30.97;;
40103;Laerm;25814;48.550;9.108;2024-02-26T01:08:47;29.62;28.73;32.08;;
40103;Laerm;25814;48.550;9.108;2024-02-26T01:11:13;29.56;28.73;32.92;;
40103;Laerm;25814;48.550;9.108;2024-02-26T01:13:40;34.87;28.93;47.59;;
40103;Laerm;25814;48.550;9.108;2024-02-26T01:16:06;32.05;28.94;53.50;;
40103;Laerm;25814;48.550;9.108;2024-02-26T01:18:32;29.72;28.72;31.36;;
40103;Laerm;25814;48.550;9.108;2024-02-26T01:20:58;32.85;28.93;45.60;;
40103;Laerm;25814;48.550;9.108;2024-02-26T01:23:24;29.59;28.67;31.66;;
40103;Laerm;25814;48.550;9.108;2024-02-26T01:25:50;29.64;28.66;31.38;;
40103;Laerm;25814;48.550;9.108;2024-02-26T01:28:17;31.13;28.87;33.21;;
40103;Laerm;25814;48.550;9.108;2024-02-26T01:30:43;29.47;28.66;31.56;;
40103;Laerm;25814;48.550;9.108;2024-02-26T01:33:09;29.70;28.63;32.86;;
40103;Laerm;25814;48.550;9.108;2024-02-26T01:35:35;29.63;28.61;33.45;;
40103;Laerm;25814;48.550;9.108;2024-02-26T01:38:01;29.60;28.55;32.45;;
40103;Laerm;25814;48.550;9.108;2024-02-26T01:40:27;31.90;29.19;37.52;;
40103;Laerm;25814;48.550;9.108;2024-02-26T01:42:53;29.71;28.88;31.59;;
40103;Laerm;25814;48.550;9.108;2024-02-26T01:45:20;29.93;28.91;32.22;;
40103;Laerm;25814;48.550;9.108;2024-02-26T01:47:52;29.65;28.88;31.37;;
40103;Laerm;25814;48.550;9.108;2024-02-26T01:50:19;29.56;28.66;31.88;;
40103;Laerm;25814;48.550;9.108;2024-02-26T01:52:48;29.57;28.65;33.91;;
40103;Laerm;25814;48.550;9.108;2024-02-26T01:55:19;29.60;28.81;31.79;;
40103;Laerm;25814;48.550;9.108;2024-02-26T01:57:48;30.15;29.02;34.28;;
40103;Laerm;25814;48.550;9.108;2024-02-26T02:00:16;29.72;28.74;33.20;;
40103;Laerm;25814;48.550;9.108;2024-02-26T02:02:44;29.49;28.78;30.62;;
40103;Laerm;25814;48.550;9.108;2024-02-26T02:05:15;29.60;28.85;31.35;;
40103;Laerm;25814;48.550;9.108;2024-02-26T02:07:43;29.65;28.68;33.39;;
40103;Laerm;25814;48.550;9.108;2024-02-26T02:10:09;30.32;28.72;34.53;;
40103;Laerm;25814;48.550;9.108;2024-02-26T02:12:35;29.54;28.84;30.68;;
40103;Laerm;25814;48.550;9.108;2024-02-26T02:15:06;30.45;28.74;37.73;;
40103;Laerm;25814;48.550;9.108;2024-02-26T02:17:32;32.85;29.33;41.82;;
40103;Laerm;25814;48.550;9.108;2024-02-26T02:19:58;30.67;28.73;38.03;;
40103;Laerm;25814;48.550;9.108;2024-02-26T02:22:24;32.33;28.70;44.70;;
40103;Laerm;25814;48.550;9.108;2024-02-26T02:24:52;30.10;28.92;33.48;;
40103;Laerm;25814;48.550;9.108;2024-02-26T02:27:20;29.64;28.79;31.93;;
40103;Laerm;25814;48.550;9.108;2024-02-26T02:29:47;29.69;28.94;33.34;;
40103;Laerm;25814;48.550;9.108;2024-02-26T02:32:16;29.60;28.81;31.65;;
40103;Laerm;25814;48.550;9.108;2024-02-26T02:34:43;29.40;28.55;30.99;;
40103;Laerm;25814;48.550;9.108;2024-02-26T02:37:09;29.58;28.70;32.10;;
40103;Laerm;25814;48.550;9.108;2024-02-26T02:39:35;29.51;28.72;31.66;;
40103;Laerm;25814;48.550;9.108;2024-02-26T02:42:02;29.44;28.71;31.09;;
40103;Laerm;25814;48.550;9.108;2024-02-26T02:44:28;30.03;28.89;33.04;;
40103;Laerm;25814;48.550;9.108;2024-02-26T02:46:54;30.79;29.16;34.28;;
40103;Laerm;25814;48.550;9.108;2024-02-26T02:49:20;30.11;29.21;32.53;;
40103;Laerm;25814;48.550;9.108;2024-02-26T02:51:47;29.80;28.87;32.45;;
40103;Laerm;25814;48.550;9.108;2024-02-26T02:54:13;29.67;28.78;31.81;;
40103;Laerm;25814;48.550;9.108;2024-02-26T02:56:39;29.74;28.81;31.29;;
40103;Laerm;25814;48.550;9.108;2024-02-26T02:59:05;29.73;28.70;42.04;;
40103;Laerm;25814;48.550;9.108;2024-02-26T03:01:32;29.88;28.80;34.94;;
40103;Laerm;25814;48.550;9.108;2024-02-26T03:03:58;29.87;28.84;32.35;;
40103;Laerm;25814;48.550;9.108;2024-02-26T03:06:24;29.93;28.99;31.81;;
40103;Laerm;25814;48.550;9.108;2024-02-26T03:08:52;29.92;28.93;34.30;;
40103;Laerm;25814;48.550;9.108;2024-02-26T03:11:18;29.93;28.58;31.80;;
40103;Laerm;25814;48.550;9.108;2024-02-26T03:13:44;30.13;29.03;35.10;;
40103;Laerm;25814;48.550;9.108;2024-02-26T03:16:11;29.79;28.96;37.05;;
40103;Laerm;25814;48.550;9.108;2024-02-26T03:18:40;30.12;29.07;31.91;;
40103;Laerm;25814;48.550;9.108;2024-02-26T03:21:07;29.77;28.93;34.13;;
40103;Laerm;25814;48.550;9.108;2024-02-26T03:23:33;29.71;28.95;33.22;;
40103;Laerm;25814;48.550;9.108;2024-02-26T03:26:05;29.58;28.82;31.67;;
40103;Laerm;25814;48.550;9.108;2024-02-26T03:28:31;30.00;29.15;32.15;;
40103;Laerm;25814;48.550;9.108;2024-02-26T03:31:01;30.27;29.14;35.28;;
40103;Laerm;25814;48.550;9.108;2024-02-26T03:33:27;29.91;28.97;32.78;;
40103;Laerm;25814;48.550;9.108;2024-02-26T03:35:53;30.53;29.12;35.64;;
40103;Laerm;25814;48.550;9.108;2024-02-26T03:38:19;30.43;29.34;35.12;;
40103;Laerm;25814;48.550;9.108;2024-02-26T03:40:46;30.40;29.38;34.73;;
40103;Laerm;25814;48.550;9.108;2024-02-26T03:43:12;30.74;29.30;32.94;;
40103;Laerm;25814;48.550;9.108;2024-02-26T03:45:38;31.94;29.69;36.86;;
40103;Laerm;25814;48.550;9.108;2024-02-26T03:48:04;30.86;29.51;33.20;;
40103;Laerm;25814;48.550;9.108;2024-02-26T03:50:31;30.38;29.47;31.68;;
40103;Laerm;25814;48.550;9.108;2024-02-26T03:52:57;30.61;29.64;34.43;;
40103;Laerm;25814;48.550;9.108;2024-02-26T03:55:23;30.98;29.60;40.49;;
40103;Laerm;25814;48.550;9.108;2024-02-26T03:57:53;32.54;29.79;45.03;;
40103;Laerm;25814;48.550;9.108;2024-02-26T04:00:20;30.73;29.75;33.69;;
40103;Laerm;25814;48.550;9.108;2024-02-26T04:02:49;30.91;29.88;36.30;;
40103;Laerm;25814;48.550;9.108;2024-02-26T04:05:15;31.07;30.01;33.22;;
40103;Laerm;25814;48.550;9.108;2024-02-26T04:07:42;31.85;30.32;34.26;;
40103;Laerm;25814;48.550;9.108;2024-02-26T04:10:11;32.56;31.03;35.66;;
40103;Laerm;25814;48.550;9.108;2024-02-26T04:12:42;33.65;31.30;36.67;;
40103;Laerm;25814;48.550;9.108;2024-02-26T04:15:10;32.24;30.43;37.47;;
40103;Laerm;25814;48.550;9.108;2024-02-26T04:17:37;31.30;30.18;35.12;;
40103;Laerm;25814;48.550;9.108;2024-02-26T04:20:05;30.99;30.10;35.17;;
40103;Laerm;25814;48.550;9.108;2024-02-26T04:22:32;31.98;30.05;40.09;;
40103;Laerm;25814;48.550;9.108;2024-02-26T04:24:58;31.32;30.27;33.07;;
40103;Laerm;25814;48.550;9.108;2024-02-26T04:27:24;35.34;30.07;45.46;;
40103;Laerm;25814;48.550;9.108;2024-02-26T04:29:50;34.44;31.25;40.34;;
40103;Laerm;25814;48.550;9.108;2024-02-26T04:32:17;32.21;30.66;35.27;;
40103;Laerm;25814;48.550;9.108;2024-02-26T04:34:43;31.57;30.23;34.57;;
40103;Laerm;25814;48.550;9.108;2024-02-26T04:37:09;32.79;31.34;36.93;;
40103;Laerm;25814;48.550;9.108;2024-02-26T04:39:35;32.90;30.96;37.91;;
40103;Laerm;25814;48.550;9.108;2024-02-26T04:42:01;32.80;31.22;35.57;;
40103;Laerm;25814;48.550;9.108;2024-02-26T04:44:29;32.62;30.92;39.14;;
40103;Laerm;25814;48.550;9.108;2024-02-26T04:46:55;32.06;30.88;33.69;;
40103;Laerm;25814;48.550;9.108;2024-02-26T04:49:22;31.25;30.22;32.75;;
40103;Laerm;25814;48.550;9.108;2024-02-26T04:51:48;31.44;30.21;34.45;;
40103;Laerm;25814;48.550;9.108;2024-02-26T04:54:14;31.00;29.70;36.43;;
40103;Laerm;25814;48.550;9.108;2024-02-26T04:56:41;30.83;29.73;33.58;;
40103;Laerm;25814;48.550;9.108;2024-02-26T04:59:07;32.64;29.61;44.16;;
40103;Laerm;25814;48.550;9.108;2024-02-26T05:01:33;31.99;29.85;39.41;;
40103;Laerm;25814;48.550;9.108;2024-02-26T05:03:59;34.69;31.37;42.18;;
40103;Laerm;25814;48.550;9.108;2024-02-26T05:06:25;34.75;31.30;46.33;;
40103;Laerm;25814;48.550;9.108;2024-02-26T05:08:51;32.59;31.07;38.52;;
40103;Laerm;25814;48.550;9.108;2024-02-26T05:11:17;33.21;29.93;46.37;;
40103;Laerm;25814;48.550;9.108;2024-02-26T05:13:43;32.93;29.97;44.72;;
40103;Laerm;25814;48.550;9.108;2024-02-26T05:16:10;34.28;31.13;45.65;;
40103;Laerm;25814;48.550;9.108;2024-02-26T05:18:36;32.78;29.84;40.07;;
40103;Laerm;25814;48.550;9.108;2024-02-26T05:21:03;34.35;30.55;43.75;;
40103;Laerm;25814;48.550;9.108;2024-02-26T05:23:29;34.83;30.91;43.25;;
40103;Laerm;25814;48.550;9.108;2024-02-26T05:25:55;36.22;32.64;45.69;;
40103;Laerm;25814;48.550;9.108;2024-02-26T05:28:21;36.32;32.31;46.84;;
40103;Laerm;25814;48.550;9.108;2024-02-26T05:30:47;35.24;31.91;41.89;;
40103;Laerm;25814;48.550;9.108;2024-02-26T05:33:13;33.19;31.13;40.86;;
40103;Laerm;25814;48.550;9.108;2024-02-26T05:35:40;36.81;31.76;57.69;;
40103;Laerm;25814;48.550;9.108;2024-02-26T05:38:06;38.57;31.42;51.29;;
40103;Laerm;25814;48.550;9.108;2024-02-26T05:40:32;47.61;33.56;61.49;;
40103;Laerm;25814;48.550;9.108;2024-02-26T05:42:58;40.85;33.90;55.97;;
40103;Laerm;25814;48.550;9.108;2024-02-26T05:45:24;37.17;31.68;49.06;;
40103;Laerm;25814;48.550;9.108;2024-02-26T05:47:50;35.96;31.52;45.94;;
40103;Laerm;25814;48.550;9.108;2024-02-26T05:50:16;40.69;34.19;52.35;;
40103;Laerm;25814;48.550;9.108;2024-02-26T05:52:42;43.68;30.99;65.64;;
40103;Laerm;25814;48.550;9.108;2024-02-26T05:55:09;35.62;31.19;52.82;;
40103;Laerm;25814;48.550;9.108;2024-02-26T05:57:35;36.25;32.37;49.01;;
40103;Laerm;25814;48.550;9.108;2024-02-26T06:00:02;36.61;33.14;46.07;;
40103;Laerm;25814;48.550;9.108;2024-02-26T06:02:31;46.75;34.61;61.41;;
40103;Laerm;25814;48.550;9.108;2024-02-26T06:04:57;42.66;33.47;55.60;;
40103;Laerm;25814;48.550;9.108;2024-02-26T06:07:23;39.68;33.46;56.64;;
40103;Laerm;25814;48.550;9.108;2024-02-26T06:09:49;46.53;34.18;61.59;;
40103;Laerm;25814;48.550;9.108;2024-02-26T06:12:15;44.94;34.70;64.15;;
40103;Laerm;25814;48.550;9.108;2024-02-26T06:14:42;40.04;33.73;51.89;;
40103;Laerm;25814;48.550;9.108;2024-02-26T06:17:08;49.18;33.50;64.87;;
40103;Laerm;25814;48.550;9.108;2024-02-26T06:19:35;43.13;32.92;54.28;;
40103;Laerm;25814;48.550;9.108;2024-02-26T06:22:01;44.18;34.37;64.45;;
40103;Laerm;25814;48.550;9.108;2024-02-26T06:24:27;36.68;32.38;47.97;;
40103;Laerm;25814;48.550;9.108;2024-02-26T06:26:53;39.65;32.99;50.45;;
40103;Laerm;25814;48.550;9.108;2024-02-26T06:29:19;46.69;34.66;63.51;;
40103;Laerm;25814;48.550;9.108;2024-02-26T06:31:45;51.44;33.71;64.66;;
40103;Laerm;25814;48.550;9.108;2024-02-26T06:34:12;44.47;34.70;56.50;;
40103;Laerm;25814;48.550;9.108;2024-02-26T06:36:39;49.21;34.02;59.76;;
40103;Laerm;25814;48.550;9.108;2024-02-26T06:39:05;42.62;32.86;54.11;;
40103;Laerm;25814;48.550;9.108;2024-02-26T06:41:31;41.44;33.02;53.56;;
40103;Laerm;25814;48.550;9.108;2024-02-26T06:43:57;42.14;34.06;56.85;;
40103;Laerm;25814;48.550;9.108;2024-02-26T06:46:23;46.49;32.88;67.22;;
40103;Laerm;25814;48.550;9.108;2024-02-26T06:48:49;39.19;32.08;60.56;;
40103;Laerm;25814;48.550;9.108;2024-02-26T06:51:15;41.82;32.43;54.10;;
40103;Laerm;25814;48.550;9.108;2024-02-26T06:53:41;44.60;33.65;59.87;;
40103;Laerm;25814;48.550;9.108;2024-02-26T06:56:08;45.47;33.38;64.08;;
40103;Laerm;25814;48.550;9.108;2024-02-26T06:58:34;42.32;33.71;54.69;;
40103;Laerm;25814;48.550;9.108;2024-02-26T07:01:00;43.84;33.91;60.45;;
40103;Laerm;25814;48.550;9.108;2024-02-26T07:03:26;42.66;33.93;54.11;;
40103;Laerm;25814;48.550;9.108;2024-02-26T07:05:52;48.95;34.30;68.65;;
40103;Laerm;25814;48.550;9.108;2024-02-26T07:08:18;48.70;34.43;63.77;;
40103;Laerm;25814;48.550;9.108;2024-02-26T07:10:44;51.92;34.96;65.95;;
40103;Laerm;25814;48.550;9.108;2024-02-26T07:13:10;43.96;34.64;63.10;;
40103;Laerm;25814;48.550;9.108;2024-02-26T07:15:37;48.75;34.18;63.90;;
40103;Laerm;25814;48.550;9.108;2024-02-26T07:18:03;40.28;34.59;59.77;;
40103;Laerm;25814;48.550;9.108;2024-02-26T07:20:30;42.64;34.57;63.77;;
40103;Laerm;25814;48.550;9.108;2024-02-26T07:22:56;39.11;34.59;48.93;;
40103;Laerm;25814;48.550;9.108;2024-02-26T07:25:23;44.42;33.74;61.50;;
40103;Laerm;25814;48.550;9.108;2024-02-26T07:27:52;40.60;33.44;57.39;;
40103;Laerm;25814;48.550;9.108;2024-02-26T07:30:19;38.62;32.17;55.13;;
40103;Laerm;25814;48.550;9.108;2024-02-26T07:32:45;38.55;32.73;53.01;;
40103;Laerm;25814;48.550;9.108;2024-02-26T07:35:11;37.09;32.85;50.20;;
40103;Laerm;25814;48.550;9.108;2024-02-26T07:37:37;36.45;32.97;53.64;;
40103;Laerm;25814;48.550;9.108;2024-02-26T07:40:04;46.10;33.58;66.99;;
40103;Laerm;25814;48.550;9.108;2024-02-26T07:42:31;45.30;33.27;68.57;;
40103;Laerm;25814;48.550;9.108;2024-02-26T07:44:57;39.75;35.19;52.89;;
40103;Laerm;25814;48.550;9.108;2024-02-26T07:47:23;37.47;33.98;57.37;;
40103;Laerm;25814;48.550;9.108;2024-02-26T07:49:49;43.24;33.77;57.63;;
40103;Laerm;25814;48.550;9.108;2024-02-26T07:52:15;48.94;33.74;70.11;;
40103;Laerm;25814;48.550;9.108;2024-02-26T07:54:41;47.54;33.30;73.74;;
40103;Laerm;25814;48.550;9.108;2024-02-26T07:57:07;46.99;34.07;68.27;;
40103;Laerm;25814;48.550;9.108;2024-02-26T07:59:34;40.39;35.79;58.73;;
40103;Laerm;25814;48.550;9.108;2024-02-26T08:02:00;42.61;34.62;57.90;;
40103;Laerm;25814;48.550;9.108;2024-02-26T08:04:29;42.36;34.45;57.94;;
40103;Laerm;25814;48.550;9.108;2024-02-26T08:06:55;44.14;33.57;57.54;;
40103;Laerm;25814;48.550;9.108;2024-02-26T08:09:21;41.73;33.19;55.30;;
40103;Laerm;25814;48.550;9.108;2024-02-26T08:11:47;41.11;32.74;59.35;;
40103;Laerm;25814;48.550;9.108;2024-02-26T08:14:13;43.10;33.58;58.68;;
40103;Laerm;25814;48.550;9.108;2024-02-26T08:16:39;38.91;32.71;55.27;;
40103;Laerm;25814;48.550;9.108;2024-02-26T08:19:05;39.96;33.32;60.09;;
40103;Laerm;25814;48.550;9.108;2024-02-26T08:21:31;43.90;33.96;61.01;;
40103;Laerm;25814;48.550;9.108;2024-02-26T08:23:57;45.88;32.63;68.21;;
40103;Laerm;25814;48.550;9.108;2024-02-26T08:26:23;40.83;33.05;58.35;;
40103;Laerm;25814;48.550;9.108;2024-02-26T08:28:50;37.76;32.75;55.83;;
40103;Laerm;25814;48.550;9.108;2024-02-26T08:31:16;49.24;32.38;62.58;;
40103;Laerm;25814;48.550;9.108;2024-02-26T08:33:43;39.87;33.02;55.05;;
40103;Laerm;25814;48.550;9.108;2024-02-26T08:36:09;42.29;32.58;56.93;;
40103;Laerm;25814;48.550;9.108;2024-02-26T08:38:35;42.39;32.64;60.49;;
40103;Laerm;25814;48.550;9.108;2024-02-26T08:41:02;40.74;32.44;56.78;;
40103;Laerm;25814;48.550;9.108;2024-02-26T08:43:28;41.20;32.66;59.35;;
40103;Laerm;25814;48.550;9.108;2024-02-26T08:45:54;37.86;32.52;49.85;;
40103;Laerm;25814;48.550;9.108;2024-02-26T08:48:21;49.51;34.25;61.37;;
40103;Laerm;25814;48.550;9.108;2024-02-26T08:50:47;41.15;33.53;53.83;;
40103;Laerm;25814;48.550;9.108;2024-02-26T08:53:13;40.94;33.11;54.96;;
40103;Laerm;25814;48.550;9.108;2024-02-26T08:55:39;40.99;32.27;55.13;;
40103;Laerm;25814;48.550;9.108;2024-02-26T08:58:05;39.39;34.05;52.12;;
40103;Laerm;25814;48.550;9.108;2024-02-26T09:00:31;41.52;31.54;56.62;;
40103;Laerm;25814;48.550;9.108;2024-02-26T09:02:57;48.34;30.77;63.27;;
40103;Laerm;25814;48.550;9.108;2024-02-26T09:05:24;51.08;31.44;66.06;;
40103;Laerm;25814;48.550;9.108;2024-02-26T09:07:50;43.35;31.19;60.55;;
40103;Laerm;25814;48.550;9.108;2024-02-26T09:10:17;43.49;31.79;58.38;;
40103;Laerm;25814;48.550;9.108;2024-02-26T09:12:43;40.77;31.93;54.55;;
40103;Laerm;25814;48.550;9.108;2024-02-26T09:15:09;42.14;31.49;56.18;;
40103;Laerm;25814;48.550;9.108;2024-02-26T09:17:35;43.71;31.93;58.70;;
40103;Laerm;25814;48.550;9.108;2024-02-26T09:20:03;42.33;31.26;55.04;;
40103;Laerm;25814;48.550;9.108;2024-02-26T09:22:29;41.84;30.96;55.29;;
40103;Laerm;25814;48.550;9.108;2024-02-26T09:24:55;40.23;32.73;55.10;;
40103;Laerm;25814;48.550;9.108;2024-02-26T09:27:21;36.75;32.39;48.40;;
40103;Laerm;25814;48.550;9.108;2024-02-26T09:29:49;36.97;31.20;50.03;;
40103;Laerm;25814;48.550;9.108;2024-02-26T09:32:15;38.80;31.44;49.85;;
40103;Laerm;25814;48.550;9.108;2024-02-26T09:34:41;37.76;31.26;49.96;;
40103;Laerm;25814;48.550;9.108;2024-02-26T09:37:08;34.69;31.17;45.71;;
40103;Laerm;25814;48.550;9.108;2024-02-26T09:39:34;46.46;31.32;67.62;;
40103;Laerm;25814;48.550;9.108;2024-02-26T09:42:04;41.10;30.39;60.92;;
40103;Laerm;25814;48.550;9.108;2024-02-26T09:44:36;42.60;30.65;60.73;;
40103;Laerm;25814;48.550;9.108;2024-02-26T09:47:06;44.44;30.38;64.00;;
40103;Laerm;25814;48.550;9.108;2024-02-26T09:49:35;41.49;31.07;63.80;;
40103;Laerm;25814;48.550;9.108;2024-02-26T09:52:04;43.96;31.77;67.22;;
40103;Laerm;25814;48.550;9.108;2024-02-26T09:54:32;44.46;30.62;68.82;;
40103;Laerm;25814;48.550;9.108;2024-02-26T09:57:02;36.46;30.73;49.55;;
40103;Laerm;25814;48.550;9.108;2024-02-26T09:59:38;37.20;30.81;53.24;;
40103;Laerm;25814;48.550;9.108;2024-02-26T10:02:19;50.75;33.09;64.97;;
40103;Laerm;25814;48.550;9.108;2024-02-26T10:04:47;42.30;31.66;57.38;;
40103;Laerm;25814;48.550;9.108;2024-02-26T10:07:16;39.68;30.73;60.13;;
40103;Laerm;25814;48.550;9.108;2024-02-26T10:09:42;44.64;30.65;60.36;;
40103;Laerm;25814;48.550;9.108;2024-02-26T10:12:11;38.53;32.86;51.95;;
40103;Laerm;25814;48.550;9.108;2024-02-26T10:14:37;34.94;30.13;54.49;;
40103;Laerm;25814;48.550;9.108;2024-02-26T10:17:07;37.83;29.90;53.61;;
40103;Laerm;25814;48.550;9.108;2024-02-26T10:19:36;43.86;30.33;62.06;;
40103;Laerm;25814;48.550;9.108;2024-02-26T10:22:02;41.68;30.77;56.50;;
40103;Laerm;25814;48.550;9.108;2024-02-26T10:24:30;43.02;31.67;66.24;;
40103;Laerm;25814;48.550;9.108;2024-02-26T10:26:57;34.13;30.87;42.27;;
40103;Laerm;25814;48.550;9.108;2024-02-26T10:29:25;37.47;32.00;57.59;;
40103;Laerm;25814;48.550;9.108;2024-02-26T10:31:52;39.41;32.36;50.24;;
40103;Laerm;25814;48.550;9.108;2024-02-26T10:34:19;50.40;33.64;67.23;;
40103;Laerm;25814;48.550;9.108;2024-02-26T10:36:45;39.24;30.47;57.24;;
40103;Laerm;25814;48.550;9.108;2024-02-26T10:39:13;37.77;30.03;58.50;;
40103;Laerm;25814;48.550;9.108;2024-02-26T10:41:44;43.95;30.41;58.01;;
40103;Laerm;25814;48.550;9.108;2024-02-26T10:44:12;46.46;30.00;61.49;;
40103;Laerm;25814;48.550;9.108;2024-02-26T10:46:40;38.82;30.07;59.49;;
40103;Laerm;25814;48.550;9.108;2024-02-26T10:49:14;36.10;30.49;51.29;;
40103;Laerm;25814;48.550;9.108;2024-02-26T10:51:45;35.84;30.67;45.99;;
40103;Laerm;25814;48.550;9.108;2024-02-26T10:54:15;41.14;30.85;52.50;;
40103;Laerm;25814;48.550;9.108;2024-02-26T10:56:42;37.29;30.97;60.05;;
40103;Laerm;25814;48.550;9.108;2024-02-26T10:59:12;39.59;31.08;59.89;;
40103;Laerm;25814;48.550;9.108;2024-02-26T11:01:39;40.69;30.04;59.88;;
40103;Laerm;25814;48.550;9.108;2024-02-26T11:04:09;47.76;30.35;59.40;;
40103;Laerm;25814;48.550;9.108;2024-02-26T11:06:36;38.90;30.34;51.87;;
40103;Laerm;25814;48.550;9.108;2024-02-26T11:09:02;40.31;30.04;51.67;;
40103;Laerm;25814;48.550;9.108;2024-02-26T11:11:32;42.66;30.18;53.34;;
40103;Laerm;25814;48.550;9.108;2024-02-26T11:14:01;35.80;30.27;53.54;;
40103;Laerm;25814;48.550;9.108;2024-02-26T11:16:30;37.11;30.66;49.37;;
40103;Laerm;25814;48.550;9.108;2024-02-26T11:18:57;32.41;29.98;44.12;;
40103;Laerm;25814;48.550;9.108;2024-02-26T11:21:23;39.59;29.94;52.67;;
40103;Laerm;25814;48.550;9.108;2024-02-26T11:24:07;37.63;30.91;56.56;;
40103;Laerm;25814;48.550;9.108;2024-02-26T11:26:43;42.49;31.54;57.31;;
40103;Laerm;25814;48.550;9.108;2024-02-26T11:29:15;37.22;33.37;46.60;;
40103;Laerm;25814;48.550;9.108;2024-02-26T11:31:42;33.58;29.66;44.06;;
40103;Laerm;25814;48.550;9.108;2024-02-26T11:34:09;34.71;30.17;46.23;;
40103;Laerm;25814;48.550;9.108;2024-02-26T11:36:37;35.97;29.70;53.59;;
40103;Laerm;25814;48.550;9.108;2024-02-26T11:39:05;40.52;29.82;54.38;;
40103;Laerm;25814;48.550;9.108;2024-02-26T11:41:32;39.17;36.68;51.04;;
40103;Laerm;25814;48.550;9.108;2024-02-26T11:44:02;38.35;36.21;49.49;;
40103;Laerm;25814;48.550;9.108;2024-02-26T11:46:32;51.20;32.10;77.30;;
40103;Laerm;25814;48.550;9.108;2024-02-26T11:49:01;36.32;29.13;58.12;;
40103;Laerm;25814;48.550;9.108;2024-02-26T11:51:33;41.43;29.57;64.91;;
40103;Laerm;25814;48.550;9.108;2024-02-26T11:54:00;38.70;31.14;48.11;;
40103;Laerm;25814;48.550;9.108;2024-02-26T11:56:26;51.19;31.63;66.11;;
40103;Laerm;25814;48.550;9.108;2024-02-26T11:59:04;34.15;31.28;44.91;;
40103;Laerm;25814;48.550;9.108;2024-02-26T12:01:47;34.13;31.26;48.96;;
40103;Laerm;25814;48.550;9.108;2024-02-26T12:04:26;46.84;31.74;59.87;;
40103;Laerm;25814;48.550;9.108;2024-02-26T12:06:58;51.54;31.69;66.02;;
40103;Laerm;25814;48.550;9.108;2024-02-26T12:09:41;44.94;31.35;62.46;;
40103;Laerm;25814;48.550;9.108;2024-02-26T12:12:09;49.84;29.95;62.78;;
40103;Laerm;25814;48.550;9.108;2024-02-26T12:14:40;38.12;29.75;53.65;;
40103;Laerm;25814;48.550;9.108;2024-02-26T12:17:25;36.73;30.09;51.31;;
40103;Laerm;25814;48.550;9.108;2024-02-26T12:19:51;36.89;30.48;49.17;;
40103;Laerm;25814;48.550;9.108;2024-02-26T12:22:19;37.79;29.82;50.48;;
40103;Laerm;25814;48.550;9.108;2024-02-26T12:24:46;34.21;29.75;44.83;;
40103;Laerm;25814;48.550;9.108;2024-02-26T12:27:12;37.10;31.30;48.03;;
40103;Laerm;25814;48.550;9.108;2024-02-26T12:29:39;32.61;29.62;44.38;;
40103;Laerm;25814;48.550;9.108;2024-02-26T12:32:06;32.60;29.46;52.85;;
40103;Laerm;25814;48.550;9.108;2024-02-26T12:34:33;38.08;29.38;60.81;;
40103;Laerm;25814;48.550;9.108;2024-02-26T12:36:59;36.09;29.99;56.38;;
40103;Laerm;25814;48.550;9.108;2024-02-26T12:39:26;36.95;29.32;57.89;;
40103;Laerm;25814;48.550;9.108;2024-02-26T12:41:52;38.33;29.11;61.44;;
40103;Laerm;25814;48.550;9.108;2024-02-26T12:44:25;35.58;29.51;51.94;;
40103;Laerm;25814;48.550;9.108;2024-02-26T12:47:03;34.46;29.80;53.70;;
40103;Laerm;25814;48.550;9.108;2024-02-26T12:49:29;33.20;29.80;45.25;;
40103;Laerm;25814;48.550;9.108;2024-02-26T12:51:55;36.52;29.79;53.05;;
40103;Laerm;25814;48.550;9.108;2024-02-26T12:54:31;41.27;29.43;55.15;;
40103;Laerm;25814;48.550;9.108;2024-02-26T12:57:00;41.09;30.98;55.91;;
40103;Laerm;25814;48.550;9.108;2024-02-26T12:59:28;38.25;30.86;51.75;;
40103;Laerm;25814;48.550;9.108;2024-02-26T13:01:55;36.28;30.12;53.59;;
40103;Laerm;25814;48.550;9.108;2024-02-26T13:04:21;41.55;30.47;65.09;;
40103;Laerm;25814;48.550;9.108;2024-02-26T13:06:47;33.39;30.66;46.67;;
40103;Laerm;25814;48.550;9.108;2024-02-26T13:09:14;36.67;30.79;54.81;;
40103;Laerm;25814;48.550;9.108;2024-02-26T13:11:40;32.71;30.00;44.26;;
40103;Laerm;25814;48.550;9.108;2024-02-26T13:14:06;34.09;30.20;53.93;;
40103;Laerm;25814;48.550;9.108;2024-02-26T13:16:32;46.37;30.63;58.19;;
40103;Laerm;25814;48.550;9.108;2024-02-26T13:19:11;32.42;30.46;40.53;;
40103;Laerm;25814;48.550;9.108;2024-02-26T13:21:37;32.41;30.16;48.25;;
40103;Laerm;25814;48.550;9.108;2024-02-26T13:24:03;36.14;29.89;54.45;;
40103;Laerm;25814;48.550;9.108;2024-02-26T13:26:32;31.23;29.96;36.72;;
40103;Laerm;25814;48.550;9.108;2024-02-26T13:29:02;32.12;29.80;41.24;;
40103;Laerm;25814;48.550;9.108;2024-02-26T13:31:31;42.66;29.64;54.44;;
40103;Laerm;25814;48.550;9.108;2024-02-26T13:34:04;43.58;30.18;55.63;;
40103;Laerm;25814;48.550;9.108;2024-02-26T13:36:30;36.83;30.50;50.67;;
40103;Laerm;25814;48.550;9.108;2024-02-26T13:38:56;32.12;30.09;47.14;;
40103;Laerm;25814;48.550;9.108;2024-02-26T13:41:23;34.68;31.34;47.84;;
40103;Laerm;25814;48.550;9.108;2024-02-26T13:43:50;33.39;30.14;44.13;;